Time;durP1;ratioP1;P1;durP2;ratioP2;P2;SDS_P1;SDS_P2;PMS_P1;PMS_P2;Temp;Humidity;BMP_temperature;BMP_pressure;BME280_temperature;BME280_humidity;BME280_pressure;Samples;Min_cycle;Max_cycle;Signal;HPM_P1;HPM_P2
2022/08/29 00:00:05;;;;;;;10.60;3.33;;;;;;;17.04;56.26;101431.78;5001842;28;20100;-64
2022/08/29 00:02:31;;;;;;;7.25;3.47;;;;;;;17.07;56.35;101440.50;5006381;28;20115;-64
2022/08/29 00:04:58;;;;;;;11.48;3.42;;;;;;;17.12;56.41;101433.06;5005784;28;20425;-64
2022/08/29 00:07:24;;;;;;;7.00;3.45;;;;;;;17.39;55.76;101431.19;5003833;28;20045;-64
2022/08/29 00:09:50;;;;;;;10.85;3.17;;;;;;;17.20;56.34;101436.06;5007300;28;20128;-64
2022/08/29 00:12:17;;;;;;;11.63;3.88;;;;;;;17.55;55.06;101438.94;5009817;28;20100;-64
2022/08/29 00:14:43;;;;;;;9.98;3.38;;;;;;;17.46;56.19;101437.78;5006353;28;20120;-64
2022/08/29 00:17:11;;;;;;;7.72;3.38;;;;;;;17.51;55.81;101439.13;5007744;28;20107;-64
2022/08/29 00:19:37;;;;;;;11.18;3.78;;;;;;;17.59;55.83;101443.13;5007577;28;20080;-64
2022/08/29 00:22:04;;;;;;;9.82;3.28;;;;;;;17.50;56.33;101440.13;5007809;28;20461;-64
2022/08/29 00:24:30;;;;;;;9.90;3.30;;;;;;;17.33;56.87;101443.06;5007718;28;20127;-64
2022/08/29 00:26:59;;;;;;;9.50;3.55;;;;;;;17.51;56.05;101441.78;5008552;28;20486;-64
2022/08/29 00:29:25;;;;;;;9.02;3.50;;;;;;;17.68;55.82;101451.28;5006078;28;20049;-64
2022/08/29 00:31:52;;;;;;;8.05;3.50;;;;;;;17.79;55.61;101445.22;5008072;28;20050;-64
2022/08/29 00:34:20;;;;;;;7.95;3.45;;;;;;;17.47;56.87;101440.34;5007543;28;20100;-64
2022/08/29 00:36:46;;;;;;;8.18;3.20;;;;;;;17.54;56.72;101443.41;5005770;28;20050;-64
2022/08/29 00:39:13;;;;;;;12.05;3.80;;;;;;;17.19;57.20;101444.97;5006123;28;20104;-64
2022/08/29 00:41:39;;;;;;;5.72;2.90;;;;;;;17.03;58.22;101439.88;5013490;28;20390;-64
2022/08/29 00:44:06;;;;;;;10.48;3.60;;;;;;;16.98;58.68;101434.03;5004010;28;20078;-64
2022/08/29 00:46:47;;;;;;;10.43;3.55;;;;;;;17.27;57.90;101443.50;5004134;28;20560;-64
2022/08/29 00:49:24;;;;;;;8.93;3.47;;;;;;;16.96;59.06;101441.25;5001510;28;20050;-64
2022/08/29 00:51:51;;;;;;;11.10;3.17;;;;;;;16.81;59.56;101444.91;5006914;28;20050;-64
2022/08/29 00:54:18;;;;;;;12.63;3.13;;;;;;;17.10;58.55;101446.44;5008884;28;20042;-64
2022/08/29 00:56:45;;;;;;;8.45;3.00;;;;;;;17.08;58.83;101440.38;5006514;28;20073;-64
2022/08/29 00:59:16;;;;;;;9.57;3.42;;;;;;;17.16;58.15;101442.53;5007612;28;20061;-64
2022/08/29 01:01:43;;;;;;;8.15;3.40;;;;;;;17.42;57.29;101438.94;4993810;28;20499;-64
2022/08/29 01:04:10;;;;;;;6.70;3.35;;;;;;;16.96;59.09;101433.28;4987439;28;20050;-64
2022/08/29 01:06:40;;;;;;;9.35;3.47;;;;;;;17.09;58.99;101449.19;4992184;28;20054;-64
2022/08/29 01:09:08;;;;;;;10.40;3.65;;;;;;;16.89;59.33;101443.44;5006831;28;20138;-64
2022/08/29 01:14:20;;;;;;;11.90;3.95;;;;;;;16.48;60.70;101438.19;5006934;28;20100;-64
2022/08/29 01:16:49;;;;;;;9.98;3.38;;;;;;;16.57;60.26;101441.22;5006942;28;20074;-64
2022/08/29 01:19:23;;;;;;;10.13;3.30;;;;;;;16.75;59.24;101454.09;5006423;28;20477;-64
2022/08/29 01:21:59;;;;;;;6.25;3.22;;;;;;;16.68;58.93;101454.59;5009300;28;20544;-64
2022/08/29 01:24:37;;;;;;;12.05;4.20;;;;;;;16.66;59.20;101453.84;5022948;28;20049;-64
2022/08/29 01:27:04;;;;;;;7.53;3.42;;;;;;;16.67;58.95;101447.59;5023616;28;20100;-63
2022/08/29 01:29:30;;;;;;;11.90;4.13;;;;;;;16.49;60.03;101450.47;5011342;28;20042;-63
2022/08/29 01:31:57;;;;;;;11.35;3.72;;;;;;;16.49;59.65;101450.47;5005802;28;20049;-64
2022/08/29 01:34:24;;;;;;;9.10;3.05;;;;;;;16.65;59.54;101458.31;5005410;28;20139;-65
2022/08/29 01:36:54;;;;;;;7.45;3.45;;;;;;;16.59;59.71;101452.56;5007074;28;20119;-64
2022/08/29 01:39:23;;;;;;;7.55;3.38;;;;;;;16.45;60.31;101454.25;5005633;28;20054;-64
2022/08/29 01:41:51;;;;;;;15.15;4.03;;;;;;;16.45;60.84;101456.06;5012067;28;20064;-64
2022/08/29 01:44:21;;;;;;;10.30;3.50;;;;;;;16.30;61.15;101457.91;5008661;28;20068;-64
2022/08/29 01:46:49;;;;;;;14.05;3.80;;;;;;;16.31;60.86;101446.38;5007046;28;20065;-64
2022/08/29 01:49:18;;;;;;;9.73;3.50;;;;;;;16.34;61.36;101455.91;5000234;28;20100;-64
2022/08/29 01:51:44;;;;;;;10.85;3.17;;;;;;;16.25;61.73;101456.50;5005201;28;20095;-64
2022/08/29 01:54:12;;;;;;;10.88;3.75;;;;;;;16.24;61.81;101463.59;5006646;28;20041;-64
2022/08/29 01:56:41;;;;;;;12.77;3.55;;;;;;;16.18;62.15;101458.69;5005058;28;20096;-64
2022/08/29 01:59:13;;;;;;;7.88;3.00;;;;;;;16.40;61.40;101451.09;5009112;28;20065;-64
2022/08/29 02:01:44;;;;;;;9.57;3.33;;;;;;;16.36;61.69;101459.31;5001024;28;20050;-64
2022/08/29 02:04:10;;;;;;;8.90;3.50;;;;;;;16.45;61.28;101459.56;4987354;28;20097;-64
2022/08/29 02:06:37;;;;;;;10.35;3.30;;;;;;;16.39;61.89;101453.81;4989658;28;20100;-64
2022/08/29 02:09:05;;;;;;;7.53;3.00;;;;;;;16.38;61.74;101462.69;5004508;28;20575;-64
2022/08/29 02:11:32;;;;;;;11.20;3.22;;;;;;;16.41;61.76;101468.63;5017782;28;20514;-64
2022/08/29 02:14:00;;;;;;;11.30;3.50;;;;;;;16.37;62.14;101466.31;5005283;28;20046;-64
2022/08/29 02:16:28;;;;;;;8.77;3.45;;;;;;;16.38;62.34;101470.63;5008575;28;20121;-64
2022/08/29 02:18:56;;;;;;;11.43;3.90;;;;;;;16.27;62.60;101468.69;5004827;28;20054;-64
2022/08/29 02:21:25;;;;;;;11.43;3.35;;;;;;;16.26;62.79;101461.69;5005989;28;20069;-64
2022/08/29 02:23:54;;;;;;;7.50;3.20;;;;;;;16.34;62.80;101461.19;5004849;28;20449;-64
2022/08/29 02:26:22;;;;;;;6.97;3.00;;;;;;;16.33;62.44;101456.88;5006232;28;20077;-64
2022/08/29 02:28:50;;;;;;;11.85;4.03;;;;;;;16.49;62.24;101455.75;5002869;28;20077;-64
2022/08/29 02:31:17;;;;;;;9.95;3.45;;;;;;;16.27;63.26;101455.44;5005441;28;20046;-64
2022/08/29 02:33:45;;;;;;;9.75;3.88;;;;;;;16.21;63.57;101461.16;5005166;28;20073;-64
2022/08/29 02:36:12;;;;;;;8.50;3.45;;;;;;;16.44;63.02;101460.50;5007003;28;20073;-64
2022/08/29 02:38:39;;;;;;;10.50;4.05;;;;;;;16.39;63.13;101461.75;4987634;28;20054;-64
2022/08/29 02:41:06;;;;;;;11.75;3.13;;;;;;;16.07;64.27;101463.81;4985061;28;20477;-64
2022/08/29 02:43:32;;;;;;;17.00;3.78;;;;;;;16.16;63.91;101473.81;5002603;28;20065;-64
2022/08/29 02:45:59;;;;;;;14.85;4.13;;;;;;;16.28;64.02;101462.44;5004676;28;20046;-64
2022/08/29 02:48:25;;;;;;;11.18;3.40;;;;;;;16.34;63.27;101456.75;5006847;28;20081;-64
2022/08/29 02:50:57;;;;;;;11.70;3.60;;;;;;;16.51;63.07;101456.53;5010043;28;20073;-64
2022/08/29 02:53:30;;;;;;;10.98;3.03;;;;;;;16.24;63.60;101454.78;5016858;28;20125;-64
2022/08/29 02:55:58;;;;;;;9.13;3.40;;;;;;;16.04;64.34;101456.91;5005034;28;20046;-64
2022/08/29 02:58:25;;;;;;;10.68;3.67;;;;;;;16.02;64.57;101469.38;5012101;28;20114;-64
2022/08/29 03:00:52;;;;;;;13.13;3.60;;;;;;;15.78;64.86;101462.16;5024009;28;20119;-63
2022/08/29 03:03:19;;;;;;;12.80;3.72;;;;;;;15.54;66.09;101465.34;5005185;28;20053;-64
2022/08/29 03:05:46;;;;;;;7.28;3.28;;;;;;;15.36;66.42;101469.06;5005215;28;20464;-64
2022/08/29 03:08:14;;;;;;;6.55;3.33;;;;;;;15.13;67.48;101463.44;5017493;28;20123;-64
2022/08/29 03:10:41;;;;;;;9.18;3.97;;;;;;;15.09;67.92;101462.75;5016917;28;20049;-64
2022/08/29 03:13:08;;;;;;;11.45;3.85;;;;;;;15.30;67.66;101469.41;5002988;28;20054;-64
2022/08/29 03:15:34;;;;;;;12.10;3.20;;;;;;;15.52;67.13;101464.56;5010858;28;20096;-64
2022/08/29 03:18:01;;;;;;;8.50;3.88;;;;;;;15.52;67.39;101461.91;5016815;28;20073;-64
2022/08/29 03:20:28;;;;;;;10.98;3.97;;;;;;;15.55;67.66;101467.06;4996331;28;20545;-64
2022/08/29 03:22:55;;;;;;;9.15;3.63;;;;;;;15.71;67.06;101466.09;5018274;28;20055;-64
2022/08/29 03:25:23;;;;;;;9.13;3.47;;;;;;;15.88;66.45;101461.47;5006679;28;20041;-64
2022/08/29 03:27:50;;;;;;;8.60;3.58;;;;;;;16.10;65.94;101466.25;4999804;28;20077;-64
2022/08/29 03:30:17;;;;;;;8.73;3.20;;;;;;;16.17;66.04;101462.28;5004716;28;20064;-64
2022/08/29 03:32:44;;;;;;;10.88;3.63;;;;;;;15.94;66.93;101458.44;5005049;28;20120;-64
2022/08/29 03:35:12;;;;;;;10.35;3.70;;;;;;;15.91;67.74;101460.44;5020796;28;20049;-64
2022/08/29 03:37:39;;;;;;;10.43;3.63;;;;;;;15.87;67.47;101462.41;5022743;28;20673;-64
2022/08/29 03:40:08;;;;;;;7.60;3.35;;;;;;;15.88;67.49;101461.47;4988828;28;20046;-63
2022/08/29 03:42:36;;;;;;;6.70;3.50;;;;;;;16.26;66.20;101456.38;4981838;28;20116;-63
2022/08/29 03:45:04;;;;;;;10.40;4.15;;;;;;;16.34;66.38;101455.91;4991076;28;20502;-64
2022/08/29 03:47:30;;;;;;;9.00;3.55;;;;;;;16.38;65.85;101460.91;5006200;28;20559;-64
2022/08/29 03:49:56;;;;;;;8.02;3.35;;;;;;;16.65;65.27;101452.16;4987776;28;20046;-63
2022/08/29 03:52:23;;;;;;;12.52;3.88;;;;;;;16.47;65.77;101452.38;5005669;28;20490;-63
2022/08/29 03:54:49;;;;;;;7.43;3.50;;;;;;;16.73;64.61;101463.09;5005855;28;20069;-63
2022/08/29 03:57:15;;;;;;;13.07;3.67;;;;;;;16.62;65.15;101455.88;5000186;28;20493;-64
2022/08/29 03:59:43;;;;;;;15.52;3.47;;;;;;;16.62;65.27;101455.00;5009603;28;20152;-64
2022/08/29 04:02:09;;;;;;;9.32;3.47;;;;;;;16.28;66.42;101453.66;4990616;28;20434;-64
2022/08/29 04:07:20;;;;;;;9.43;3.40;;;;;;;16.58;65.33;101466.75;5003819;28;20096;-64
2022/08/29 04:09:46;;;;;;;13.65;3.60;;;;;;;16.74;64.93;101476.22;5019328;28;20119;-64
2022/08/29 04:12:14;;;;;;;9.55;3.40;;;;;;;16.77;65.06;101470.75;5016832;28;20049;-64
2022/08/29 04:14:42;;;;;;;11.75;3.78;;;;;;;16.73;65.33;101469.25;5008121;28;20119;-64
2022/08/29 04:17:11;;;;;;;9.15;3.17;;;;;;;16.81;64.74;101464.31;5006748;28;20182;-64
2022/08/29 04:19:37;;;;;;;11.43;3.88;;;;;;;16.91;64.67;101451.28;4999796;28;20088;-64
2022/08/29 04:22:05;;;;;;;12.02;3.75;;;;;;;16.78;65.34;101456.53;5008399;28;20070;-64
2022/08/29 04:24:32;;;;;;;14.43;3.63;;;;;;;17.04;64.14;101460.09;5007106;28;20248;-64
2022/08/29 04:26:59;;;;;;;10.05;3.22;;;;;;;17.15;64.05;101448.75;5024099;28;20551;-64
2022/08/29 04:29:26;;;;;;;9.40;3.03;;;;;;;17.31;63.18;101450.28;5009181;28;20045;-64
2022/08/29 04:31:54;;;;;;;10.52;3.47;;;;;;;17.29;63.20;101456.66;5016213;28;20049;-64
2022/08/29 04:34:21;;;;;;;11.60;4.40;;;;;;;17.24;64.01;101456.09;5006056;28;20096;-64
2022/08/29 04:36:47;;;;;;;12.40;3.70;;;;;;;17.46;63.09;101456.34;5007985;28;20141;-64
2022/08/29 04:39:14;;;;;;;15.98;4.13;;;;;;;17.47;63.26;101463.34;5001737;28;20119;-64
2022/08/29 04:41:41;;;;;;;11.48;3.40;;;;;;;17.35;63.08;101469.47;5005365;28;20167;-64
2022/08/29 04:44:10;;;;;;;11.52;3.47;;;;;;;17.34;63.86;101459.81;4993620;28;20054;-64
2022/08/29 04:46:36;;;;;;;8.90;3.45;;;;;;;17.30;64.02;101464.47;5012584;28;20115;-65
2022/08/29 04:49:04;;;;;;;12.25;3.75;;;;;;;17.37;63.89;101464.91;5008143;28;20339;-64
2022/08/29 04:51:30;;;;;;;10.73;3.97;;;;;;;17.23;64.43;101463.19;5013048;28;20094;-64
2022/08/29 04:53:57;;;;;;;8.05;3.25;;;;;;;16.96;64.96;101468.56;5018131;28;20524;-64
2022/08/29 04:56:23;;;;;;;11.13;3.90;;;;;;;17.12;64.51;101471.03;5018868;28;20041;-64
2022/08/29 04:58:50;;;;;;;12.57;3.50;;;;;;;16.98;65.05;101466.66;5010161;28;20077;-64
2022/08/29 05:01:22;;;;;;;9.68;3.25;;;;;;;16.89;65.88;101474.34;5024178;28;20053;-64
2022/08/29 05:03:50;;;;;;;11.60;3.47;;;;;;;17.07;65.39;101465.22;5026226;28;21815;-64
2022/08/29 05:06:21;;;;;;;10.50;3.45;;;;;;;17.28;64.38;101461.09;5019140;28;20467;-64
2022/08/29 05:08:47;;;;;;;19.48;3.75;;;;;;;17.44;63.70;101474.16;5008318;28;20061;-64
2022/08/29 05:11:18;;;;;;;14.98;3.38;;;;;;;17.61;63.36;101473.88;5019682;28;20501;-64
2022/08/29 05:13:45;;;;;;;13.48;3.78;;;;;;;17.55;63.11;101476.94;4996461;28;20417;-64
2022/08/29 05:16:13;;;;;;;9.23;3.17;;;;;;;17.24;64.48;101486.13;5005055;28;20450;-64
2022/08/29 05:18:40;;;;;;;10.68;3.60;;;;;;;17.58;63.95;101490.00;5000670;28;20124;-64
2022/08/29 05:21:07;;;;;;;9.20;3.17;;;;;;;17.74;63.30;101485.31;5007142;28;20046;-65
2022/08/29 05:23:35;;;;;;;11.43;3.80;;;;;;;17.22;65.12;101492.47;5006469;28;20042;-65
2022/08/29 05:26:03;;;;;;;13.00;3.53;;;;;;;17.11;65.29;101495.81;5010868;28;20069;-65
2022/08/29 05:28:31;;;;;;;13.50;3.17;;;;;;;17.26;65.48;101492.16;5014749;28;20163;-64
2022/08/29 05:30:58;;;;;;;7.93;3.42;;;;;;;17.23;65.24;101489.72;5008271;28;20046;-64
2022/08/29 05:33:26;;;;;;;10.75;3.63;;;;;;;17.36;65.00;101489.75;5006996;28;20057;-65
2022/08/29 05:35:52;;;;;;;9.15;3.00;;;;;;;17.50;64.67;101494.94;5005873;28;20056;-65
2022/08/29 05:38:19;;;;;;;12.43;3.72;;;;;;;17.81;64.19;101494.53;5011005;28;20063;-65
2022/08/29 05:40:47;;;;;;;12.68;3.25;;;;;;;17.81;63.72;101491.88;5024194;28;20119;-65
2022/08/29 05:43:13;;;;;;;10.45;3.30;;;;;;;18.12;62.75;101498.53;4997014;28;20045;-65
2022/08/29 05:45:40;;;;;;;13.95;4.70;;;;;;;17.98;63.46;101501.31;5023578;28;20046;-65
2022/08/29 05:48:08;;;;;;;14.20;4.13;;;;;;;18.12;63.42;101501.19;5006353;28;20065;-65
2022/08/29 05:50:40;;;;;;;10.98;3.50;;;;;;;18.31;62.50;101493.63;5004783;28;20066;-65
2022/08/29 05:53:07;;;;;;;10.77;3.63;;;;;;;18.38;62.15;101508.16;5012789;28;20050;-65
2022/08/29 05:55:33;;;;;;;11.20;3.50;;;;;;;18.33;62.51;101504.97;4987756;28;20045;-65
2022/08/29 05:58:01;;;;;;;9.13;2.85;;;;;;;18.28;62.20;101504.47;5004594;28;20465;-65
2022/08/29 06:00:27;;;;;;;7.88;2.90;;;;;;;18.30;62.46;101502.53;5007388;28;20414;-65
2022/08/29 06:02:54;;;;;;;12.57;3.42;;;;;;;18.41;62.30;101504.41;5000185;28;20043;-65
2022/08/29 06:05:20;;;;;;;9.30;2.75;;;;;;;18.24;63.84;101505.63;4985146;28;20460;-64
2022/08/29 06:07:47;;;;;;;7.07;3.25;;;;;;;18.13;63.66;101500.25;5003618;28;20490;-64
2022/08/29 06:10:13;;;;;;;14.48;3.88;;;;;;;18.42;62.81;101508.78;4976919;28;20502;-65
2022/08/29 06:12:39;;;;;;;12.35;3.78;;;;;;;18.36;63.19;101507.41;4994389;28;20050;-65
2022/08/29 06:15:08;;;;;;;9.55;3.38;;;;;;;18.74;62.40;101517.91;5006429;28;20050;-65
2022/08/29 06:17:36;;;;;;;13.48;3.50;;;;;;;18.95;61.58;101507.53;5004387;28;20108;-64
2022/08/29 06:20:07;;;;;;;10.45;3.05;;;;;;;18.84;62.64;101510.13;4996901;28;20551;-65
2022/08/29 06:22:34;;;;;;;10.90;3.60;;;;;;;18.84;62.19;101510.13;5013382;28;20053;-64
2022/08/29 06:25:01;;;;;;;9.95;3.53;;;;;;;18.93;61.53;101504.97;5021624;28;20049;-64
2022/08/29 06:27:27;;;;;;;10.65;3.20;;;;;;;18.91;61.67;101517.53;5017524;28;20058;-64
2022/08/29 06:29:54;;;;;;;13.10;3.30;;;;;;;18.90;61.62;101515.84;4977066;28;20096;-64
2022/08/29 06:32:21;;;;;;;7.18;3.28;;;;;;;18.98;61.77;101527.72;4989551;28;20054;-64
2022/08/29 06:34:48;;;;;;;9.65;3.17;;;;;;;18.67;62.72;101524.66;4995310;28;20115;-64
2022/08/29 06:37:14;;;;;;;14.50;4.38;;;;;;;19.10;62.46;101516.16;5005088;28;20101;-64
2022/08/29 06:39:41;;;;;;;10.45;3.30;;;;;;;18.96;61.94;101528.66;4994632;28;20113;-64
2022/08/29 06:42:07;;;;;;;12.73;4.05;;;;;;;19.06;62.08;101523.53;4998736;28;20073;-64
2022/08/29 06:44:34;;;;;;;8.98;3.40;;;;;;;18.95;62.29;101528.81;5005595;28;20041;-64
2022/08/29 06:47:00;;;;;;;9.25;3.05;;;;;;;19.04;62.78;101522.78;5005364;28;20468;-64
2022/08/29 06:49:28;;;;;;;12.75;3.72;;;;;;;19.19;62.32;101523.44;4997260;28;20050;-64
2022/08/29 06:51:55;;;;;;;8.90;3.33;;;;;;;19.17;62.13;101528.88;5005896;28;20093;-64
2022/08/29 06:54:24;;;;;;;9.73;3.60;;;;;;;19.29;61.67;101530.59;5004929;28;20095;-64
2022/08/29 06:56:50;;;;;;;11.25;3.47;;;;;;;19.39;61.70;101528.97;5004842;28;20481;-64
2022/08/29 06:59:17;;;;;;;10.32;3.33;;;;;;;19.64;61.39;101540.41;5005788;28;20058;-64
2022/08/29 07:01:45;;;;;;;11.00;3.30;;;;;;;19.70;61.70;101539.94;5018578;28;20053;-64
2022/08/29 07:04:12;;;;;;;14.27;3.92;;;;;;;19.48;62.32;101539.88;5021088;28;20456;-64
2022/08/29 07:06:41;;;;;;;11.20;3.70;;;;;;;19.47;62.60;101536.41;5006995;28;20107;-64
2022/08/29 07:09:08;;;;;;;13.40;3.97;;;;;;;19.59;61.38;101532.78;5002615;28;20046;-64
2022/08/29 07:11:38;;;;;;;10.57;3.70;;;;;;;19.81;61.80;101550.59;5008352;28;20095;-64
2022/08/29 07:14:05;;;;;;;10.48;4.10;;;;;;;19.93;63.50;101539.00;4997131;28;20049;-64
2022/08/29 07:16:33;;;;;;;15.05;4.20;;;;;;;19.81;63.12;101534.63;5005921;28;20046;-64
2022/08/29 07:19:01;;;;;;;8.98;3.33;;;;;;;19.93;63.40;101534.53;4997050;28;20045;-64
2022/08/29 07:21:27;;;;;;;14.68;3.80;;;;;;;20.51;61.35;101545.09;5005471;28;20050;-64
2022/08/29 07:23:57;;;;;;;12.93;4.45;;;;;;;20.79;60.55;101540.03;5005426;28;20049;-64
2022/08/29 07:26:27;;;;;;;11.68;4.22;;;;;;;20.52;60.90;101542.28;5023313;28;20037;-64
2022/08/29 07:28:57;;;;;;;10.50;3.90;;;;;;;20.96;62.40;101548.47;5023784;28;20115;-65
2022/08/29 07:31:23;;;;;;;10.75;4.00;;;;;;;21.26;59.68;101541.47;5020600;28;20531;-65
2022/08/29 07:33:49;;;;;;;15.02;4.50;;;;;;;21.23;60.87;101551.56;5011071;28;20509;-65
2022/08/29 07:36:16;;;;;;;11.63;4.25;;;;;;;21.50;60.92;101541.25;5012778;28;20045;-66
2022/08/29 07:38:42;;;;;;;16.55;4.15;;;;;;;22.56;56.48;101547.09;5003999;28;20045;-66
2022/08/29 07:41:13;;;;;;;15.68;6.05;;;;;;;23.00;53.67;101549.31;5006220;28;20057;-66
2022/08/29 07:43:40;;;;;;;17.38;5.20;;;;;;;23.58;54.30;101543.94;5001664;28;20511;-66
2022/08/29 07:46:08;;;;;;;13.43;4.30;;;;;;;24.38;51.68;101538.94;5002635;28;20301;-66
2022/08/29 07:48:35;;;;;;;14.35;4.28;;;;;;;24.73;49.28;101551.56;5000455;28;20321;-66
2022/08/29 07:51:01;;;;;;;15.60;5.10;;;;;;;24.92;49.56;101539.88;5007462;28;20045;-66
2022/08/29 07:53:28;;;;;;;15.10;4.75;;;;;;;24.67;49.23;101542.28;5007771;28;20045;-66
2022/08/29 07:55:54;;;;;;;11.70;4.10;;;;;;;25.13;47.70;101543.94;5008318;28;20050;-66
2022/08/29 07:58:22;;;;;;;19.20;5.28;;;;;;;25.92;47.03;101549.28;5007977;28;20046;-66
2022/08/29 08:00:48;;;;;;;11.10;3.60;;;;;;;25.94;46.45;101544.56;5006064;28;20489;-65
2022/08/29 08:03:14;;;;;;;11.90;4.60;;;;;;;26.66;46.02;101545.94;5009305;28;20038;-65
2022/08/29 08:05:41;;;;;;;9.48;3.70;;;;;;;27.03;43.67;101541.00;5008870;28;20096;-65
2022/08/29 08:08:08;;;;;;;14.77;3.95;;;;;;;27.05;43.94;101540.84;5006765;28;20057;-65
2022/08/29 08:10:35;;;;;;;12.80;4.25;;;;;;;27.23;44.82;101548.75;5010466;28;20046;-65
2022/08/29 08:13:02;;;;;;;11.68;3.60;;;;;;;27.23;44.26;101552.28;5003840;28;20183;-65
2022/08/29 08:15:29;;;;;;;12.25;4.13;;;;;;;27.82;43.32;101548.41;5008906;28;20050;-66
2022/08/29 08:17:56;;;;;;;11.02;3.90;;;;;;;28.04;40.24;101553.06;5012605;28;20139;-66
2022/08/29 08:20:22;;;;;;;12.82;4.03;;;;;;;27.66;41.80;101544.88;4998163;28;20042;-65
2022/08/29 08:22:49;;;;;;;13.32;4.25;;;;;;;26.93;44.25;101559.16;5010749;28;20051;-65
2022/08/29 08:25:15;;;;;;;15.82;3.92;;;;;;;26.32;45.12;101553.19;5027785;28;20049;-65
2022/08/29 08:27:41;;;;;;;11.95;4.20;;;;;;;26.04;44.25;101556.06;5006869;28;20116;-65
2022/08/29 08:30:09;;;;;;;12.50;3.85;;;;;;;26.13;45.44;101560.47;5008603;28;20053;-65
2022/08/29 08:32:37;;;;;;;6.82;3.30;;;;;;;26.03;44.97;101559.75;5008045;28;20494;-65
2022/08/29 08:35:04;;;;;;;9.77;3.15;;;;;;;25.73;45.35;101570.97;5004482;28;20490;-65
2022/08/29 08:37:30;;;;;;;12.85;4.25;;;;;;;25.33;48.77;101565.25;5019228;28;20045;-65
2022/08/29 08:39:56;;;;;;;10.50;3.58;;;;;;;25.45;47.94;101564.03;5010993;28;20046;-65
2022/08/29 08:42:32;;;;;;;8.60;3.22;;;;;;;25.82;47.99;101567.34;5012224;28;20071;-65
2022/08/29 08:45:07;;;;;;;10.75;3.47;;;;;;;25.61;47.32;101569.53;4999686;28;20105;-65
2022/08/29 08:47:39;;;;;;;11.93;3.38;;;;;;;25.83;45.94;101562.84;4993993;28;20100;-65
2022/08/29 08:50:11;;;;;;;10.70;3.60;;;;;;;26.30;45.89;101560.59;5008705;28;20117;-65
2022/08/29 08:52:45;;;;;;;10.57;3.60;;;;;;;26.95;45.10;101572.44;5006683;28;20082;-65
2022/08/29 08:55:22;;;;;;;8.82;3.42;;;;;;;26.71;44.15;101567.81;5007591;28;20062;-65
2022/08/29 08:57:58;;;;;;;9.27;3.60;;;;;;;26.55;45.38;101559.69;5001147;28;20054;-65
2022/08/29 09:00:24;;;;;;;11.77;3.28;;;;;;;26.35;44.97;101564.47;5031117;28;20152;-65
2022/08/29 09:03:03;;;;;;;10.20;3.85;;;;;;;26.54;44.01;101564.22;5019886;28;20663;-65
2022/08/29 09:05:52;;;;;;;11.07;4.03;;;;;;;26.77;43.38;101572.53;5025546;28;20061;-65
2022/08/29 09:08:27;;;;;;;15.55;3.78;;;;;;;26.90;44.87;101574.78;5027355;28;20049;-65
2022/08/29 09:10:59;;;;;;;13.45;3.92;;;;;;;27.17;43.22;101569.09;5020326;28;20120;-65
2022/08/29 09:13:37;;;;;;;11.35;3.58;;;;;;;27.10;42.76;101568.94;5005322;28;20135;-65
2022/08/29 09:16:09;;;;;;;11.25;3.63;;;;;;;28.01;41.53;101556.09;5007212;28;20048;-65
2022/08/29 09:18:39;;;;;;;6.97;3.10;;;;;;;28.44;42.10;101562.03;5005393;28;20096;-65
2022/08/29 09:21:11;;;;;;;13.48;3.72;;;;;;;28.23;40.31;101557.25;5005074;28;20050;-65
2022/08/29 09:23:41;;;;;;;;;;;;;;;28.42;40.64;101556.81;5007569;28;20061;-65
2022/08/29 09:26:08;;;;;;;11.80;3.85;;;;;;;29.00;42.45;101560.91;5007984;28;19954;-65
2022/08/29 09:28:34;;;;;;;10.57;3.90;;;;;;;29.51;39.23;101558.50;5007634;28;20107;-65
2022/08/29 09:31:17;;;;;;;9.43;3.72;;;;;;;28.87;38.59;101548.00;5007356;28;20042;-65
2022/08/29 09:33:48;;;;;;;13.30;3.90;;;;;;;29.11;40.74;101541.59;5008959;28;20041;-65
2022/08/29 09:36:32;;;;;;;11.00;3.67;;;;;;;28.88;41.19;101548.84;5026243;28;20045;-66
2022/08/29 09:39:10;;;;;;;24.27;3.63;;;;;;;28.97;38.92;101551.28;5021334;28;20068;-66
2022/08/29 09:41:36;;;;;;;11.00;3.30;;;;;;;28.56;39.56;101543.59;4994701;28;20453;-66
2022/08/29 09:44:04;;;;;;;12.18;3.58;;;;;;;28.31;39.10;101548.25;4990450;28;20074;-65
2022/08/29 09:46:30;;;;;;;12.18;3.92;;;;;;;28.26;42.07;101553.34;5003580;28;20127;-65
2022/08/29 09:49:13;;;;;;;10.23;3.60;;;;;;;28.29;39.77;101548.44;4995297;28;20050;-65
2022/08/29 09:51:42;;;;;;;8.70;3.63;;;;;;;28.14;41.18;101549.34;4987493;28;20068;-65
2022/08/29 09:54:23;;;;;;;15.23;3.80;;;;;;;28.36;39.21;101554.81;4969750;28;20050;-65
2022/08/29 09:56:54;;;;;;;10.73;3.60;;;;;;;28.44;40.79;101551.25;5013603;28;20060;-65
2022/08/29 09:59:27;;;;;;;11.35;3.90;;;;;;;28.05;42.64;101546.63;5016702;28;20099;-65
2022/08/29 10:02:21;;;;;;;10.95;3.95;;;;;;;28.53;42.63;101552.88;5025900;28;20049;-65
2022/08/29 10:04:52;;;;;;;9.00;3.20;;;;;;;28.88;39.48;101549.69;5024831;28;20064;-65
2022/08/29 10:07:22;;;;;;;8.10;3.10;;;;;;;28.63;39.84;101553.53;5025085;28;20505;-65
2022/08/29 10:10:02;;;;;;;9.60;3.50;;;;;;;28.04;39.62;101549.53;4990778;28;20514;-65
2022/08/29 10:12:36;;;;;;;9.48;3.60;;;;;;;28.48;39.57;101552.59;4998610;28;20494;-65
2022/08/29 10:15:06;;;;;;;7.22;3.03;;;;;;;28.87;40.68;101553.38;5013227;28;20158;-65
2022/08/29 10:20:24;;;;;;;8.27;3.30;;;;;;;29.20;38.30;101548.59;4995477;28;20064;-65
2022/08/29 10:23:00;;;;;;;6.95;3.53;;;;;;;28.37;40.17;101551.13;5006147;28;20107;-65
2022/08/29 10:25:35;;;;;;;11.38;3.80;;;;;;;28.30;38.26;101544.75;5011463;28;20069;-64
2022/08/29 10:28:14;;;;;;;9.13;3.85;;;;;;;27.66;41.02;101540.34;5013430;28;20052;-64
2022/08/29 10:30:49;;;;;;;7.82;3.30;;;;;;;27.90;40.18;101545.66;5001823;28;20073;-64
2022/08/29 10:33:30;;;;;;;11.50;3.40;;;;;;;28.21;39.09;101545.78;4999854;28;20042;-64
2022/08/29 10:36:05;;;;;;;9.32;3.08;;;;;;;27.73;40.40;101546.72;5005566;28;20151;-64
2022/08/29 10:38:45;;;;;;;10.02;3.53;;;;;;;27.56;41.22;101547.78;5003378;28;20533;-65
2022/08/29 10:41:24;;;;;;;8.50;3.35;;;;;;;27.33;41.64;101554.81;5004288;28;20046;-66
2022/08/29 10:44:01;;;;;;;12.38;3.58;;;;;;;27.52;42.58;101549.13;4998346;28;20563;-67
2022/08/29 10:46:52;;;;;;;8.55;3.20;;;;;;;27.80;42.12;101545.03;5005574;28;20108;-66
2022/08/29 10:49:30;;;;;;;10.80;3.25;;;;;;;28.24;40.36;101542.72;5000972;28;20049;-66
2022/08/29 10:52:07;;;;;;;12.63;3.47;;;;;;;27.71;40.30;101540.69;4985823;28;20486;-67
2022/08/29 10:54:45;;;;;;;8.60;3.45;;;;;;;27.10;42.87;101547.41;5012494;28;20414;-67
2022/08/29 10:57:20;;;;;;;7.78;3.13;;;;;;;27.25;41.37;101546.72;5000923;28;20041;-67
2022/08/29 10:59:59;;;;;;;10.02;3.53;;;;;;;26.98;41.10;101540.63;5002978;28;20457;-66
2022/08/29 11:02:33;;;;;;;14.60;3.50;;;;;;;27.12;41.48;101541.00;5004590;28;20096;-66
2022/08/29 11:05:07;;;;;;;7.63;2.90;;;;;;;27.76;42.47;101532.06;5005516;28;20409;-67
2022/08/29 11:07:41;;;;;;;11.15;3.58;;;;;;;27.73;40.70;101530.56;5005906;28;20054;-67
2022/08/29 11:10:13;;;;;;;15.05;4.95;;;;;;;27.83;41.72;101531.19;5017299;28;20045;-67
2022/08/29 11:12:44;;;;;;;7.95;4.07;;;;;;;28.19;42.11;101533.50;4998885;28;20054;-66
2022/08/29 11:15:19;;;;;;;6.53;3.03;;;;;;;28.32;39.83;101537.31;5003879;28;20510;-66
2022/08/29 11:18:00;;;;;;;9.20;3.72;;;;;;;28.58;40.39;101542.41;5004381;28;20049;-67
2022/08/29 11:20:34;;;;;;;8.43;2.95;;;;;;;28.69;39.83;101541.19;5003765;28;20459;-67
2022/08/29 11:23:05;;;;;;;9.13;3.42;;;;;;;28.31;38.32;101543.72;5007342;28;20096;-66
2022/08/29 11:25:33;;;;;;;6.18;3.08;;;;;;;28.23;39.59;101540.22;5008205;28;20050;-66
2022/08/29 11:28:06;;;;;;;6.82;3.15;;;;;;;28.47;38.72;101538.25;5009778;28;20138;-66
2022/08/29 11:30:43;;;;;;;5.80;3.03;;;;;;;29.23;39.25;101536.63;5009512;28;20100;-67
2022/08/29 11:33:21;;;;;;;7.07;3.10;;;;;;;29.40;39.02;101532.78;5008739;28;20611;-67
2022/08/29 11:36:04;;;;;;;4.45;2.80;;;;;;;29.47;36.49;101539.13;5012629;28;20042;-67
2022/08/29 11:39:04;;;;;;;6.05;2.78;;;;;;;29.10;39.77;101539.91;4995759;28;20046;-67